Time;durP1;ratioP1;P1;durP2;ratioP2;P2;SDS_P1;SDS_P2;PMS_P1;PMS_P2;Temp;Humidity;BMP_temperature;BMP_pressure;BME280_temperature;BME280_humidity;BME280_pressure;Samples;Min_cycle;Max_cycle;Signal;HPM_P1;HPM_P2
2023/03/10 00:00:55;;;;;;;6.00;1.85;;;11.20;99.90;;;;;;2026680;29;20051;-74
2023/03/10 00:01:56;;;;;;;8.23;2.40;;;11.10;99.90;;;;;;2033136;29;20027;-73
2023/03/10 00:02:56;;;;;;;8.63;2.30;;;11.20;99.90;;;;;;2035942;29;20035;-73
2023/03/10 00:03:58;;;;;;;7.05;1.88;;;11.20;99.90;;;;;;2036795;29;20079;-73
2023/03/10 00:04:59;;;;;;;5.53;2.22;;;11.20;99.90;;;;;;2035705;29;20035;-74
2023/03/10 00:06:01;;;;;;;7.90;2.35;;;11.20;99.90;;;;;;2036692;29;20052;-73
2023/03/10 00:07:02;;;;;;;5.43;2.00;;;11.20;99.90;;;;;;2035620;29;20032;-74
2023/03/10 00:08:02;;;;;;;8.60;3.17;;;11.20;99.90;;;;;;2035674;29;20032;-74
2023/03/10 00:09:03;;;;;;;7.45;2.22;;;11.20;99.90;;;;;;2037114;29;20028;-73
2023/03/10 00:10:04;;;;;;;6.28;2.08;;;11.20;99.90;;;;;;2036494;29;20031;-74
2023/03/10 00:11:05;;;;;;;10.15;2.38;;;11.20;99.90;;;;;;2035216;29;20177;-73
2023/03/10 00:12:06;;;;;;;5.55;1.80;;;11.20;99.90;;;;;;2035713;29;20064;-73
2023/03/10 00:13:06;;;;;;;6.35;2.10;;;11.20;99.90;;;;;;2035086;29;20106;-73
2023/03/10 00:14:07;;;;;;;3.95;1.70;;;11.20;99.90;;;;;;2036140;29;20039;-73
2023/03/10 00:15:09;;;;;;;5.50;2.25;;;11.20;99.90;;;;;;2036752;29;20055;-73
2023/03/10 00:16:24;;;;;;;6.78;2.45;;;11.20;99.90;;;;;;2036853;29;20042;-73
2023/03/10 00:17:25;;;;;;;5.22;1.55;;;11.20;99.90;;;;;;2028585;29;20080;-73
2023/03/10 00:18:25;;;;;;;7.07;2.17;;;11.20;99.90;;;;;;2029181;29;20036;-74
2023/03/10 00:19:26;;;;;;;7.88;2.22;;;11.20;99.90;;;;;;2038010;29;20043;-73
2023/03/10 00:20:26;;;;;;;5.05;1.88;;;11.20;99.90;;;;;;2035554;29;20031;-73
2023/03/10 00:21:30;;;;;;;3.88;1.70;;;11.20;99.90;;;;;;2037153;29;20058;-73
2023/03/10 00:22:31;;;;;;;5.53;1.88;;;11.20;99.90;;;;;;2035324;29;20027;-74
2023/03/10 00:23:31;;;;;;;5.88;1.80;;;11.20;99.90;;;;;;2028166;29;20071;-73
2023/03/10 00:24:33;;;;;;;4.07;1.60;;;11.20;99.90;;;;;;2026132;29;20044;-73
2023/03/10 00:25:33;;;;;;;6.32;2.30;;;11.20;99.90;;;;;;2036125;29;20030;-73
2023/03/10 00:26:36;;;;;;;4.55;1.70;;;11.20;99.90;;;;;;2044269;28;20103;-73
2023/03/10 00:27:36;;;;;;;6.78;1.60;;;11.30;99.90;;;;;;2042192;28;20038;-74
2023/03/10 00:28:37;;;;;;;7.03;1.90;;;11.20;99.90;;;;;;2032686;29;20111;-74
2023/03/10 00:29:38;;;;;;;5.68;1.95;;;11.30;99.90;;;;;;2036599;29;20048;-73
2023/03/10 00:30:38;;;;;;;3.75;1.33;;;11.20;99.90;;;;;;2035034;29;20416;-74
2023/03/10 00:31:39;;;;;;;3.50;1.50;;;11.30;99.90;;;;;;2036673;29;20052;-74
2023/03/10 00:32:39;;;;;;;4.22;1.50;;;11.30;99.90;;;;;;2034557;29;20031;-73
2023/03/10 00:33:40;;;;;;;3.17;1.55;;;11.30;99.90;;;;;;2026995;29;20020;-73
2023/03/10 00:34:41;;;;;;;4.68;1.50;;;11.30;99.90;;;;;;2028681;29;20080;-73
2023/03/10 00:35:41;;;;;;;4.68;1.95;;;11.30;99.90;;;;;;2034687;29;20411;-73
2023/03/10 00:36:42;;;;;;;5.75;1.77;;;11.30;99.90;;;;;;2035563;29;20028;-73
2023/03/10 00:37:42;;;;;;;2.20;1.38;;;11.30;99.90;;;;;;2034774;29;20087;-73
2023/03/10 00:38:44;;;;;;;3.13;1.50;;;11.30;99.90;;;;;;2035379;29;20027;-73
2023/03/10 00:39:48;;;;;;;3.85;1.65;;;11.30;99.90;;;;;;2036182;29;20616;-73
2023/03/10 00:40:59;;;;;;;8.23;1.63;;;11.30;99.90;;;;;;2036288;29;20039;-73
2023/03/10 00:42:00;;;;;;;4.90;1.90;;;11.30;99.90;;;;;;2027041;29;20025;-73
2023/03/10 00:43:01;;;;;;;6.45;1.55;;;11.30;99.90;;;;;;2026351;29;20024;-73
2023/03/10 00:44:02;;;;;;;5.72;1.75;;;11.30;99.90;;;;;;2036351;29;20052;-73
2023/03/10 00:45:03;;;;;;;3.38;1.50;;;11.30;99.90;;;;;;2035516;29;20428;-73
2023/03/10 00:46:04;;;;;;;2.95;1.40;;;11.30;99.90;;;;;;2036576;29;20103;-73
2023/03/10 00:47:05;;;;;;;5.35;1.50;;;11.30;99.90;;;;;;2026222;29;20036;-73
2023/03/10 00:48:06;;;;;;;7.22;2.10;;;11.30;99.90;;;;;;2027547;29;20036;-73
2023/03/10 00:49:07;;;;;;;4.28;1.77;;;11.30;99.90;;;;;;2036908;29;20856;-73
2023/03/10 00:50:08;;;;;;;3.38;1.15;;;11.30;99.90;;;;;;2033855;29;20400;-73
2023/03/10 00:51:09;;;;;;;5.82;1.92;;;11.40;99.90;;;;;;2036212;29;20086;-73
2023/03/10 00:52:09;;;;;;;3.55;1.52;;;11.40;99.90;;;;;;2037995;29;20020;-73
2023/03/10 00:53:10;;;;;;;5.63;1.75;;;11.30;99.90;;;;;;2035886;29;20043;-73
2023/03/10 00:54:11;;;;;;;5.50;1.58;;;11.40;99.90;;;;;;2036713;29;20102;-73
2023/03/10 00:55:11;;;;;;;5.30;1.60;;;11.40;99.90;;;;;;2034710;29;20104;-73
2023/03/10 00:56:23;;;;;;;3.92;1.50;;;11.40;99.90;;;;;;2034196;29;20055;-73
2023/03/10 00:57:25;;;;;;;5.32;1.30;;;11.40;99.90;;;;;;2037220;29;20479;-73
2023/03/10 00:58:26;;;;;;;5.72;1.73;;;11.40;99.90;;;;;;2035715;29;20048;-73
2023/03/10 00:59:27;;;;;;;4.32;1.52;;;11.40;99.90;;;;;;2028293;29;20036;-73
2023/03/10 01:00:27;;;;;;;3.15;1.25;;;11.40;99.90;;;;;;2035235;29;20051;-73
2023/03/10 01:01:29;;;;;;;3.30;1.60;;;11.40;99.90;;;;;;2042254;28;20034;-73
2023/03/10 01:02:30;;;;;;;3.65;1.67;;;11.40;99.90;;;;;;2036572;29;20391;-74
2023/03/10 01:03:30;;;;;;;4.82;1.92;;;11.40;99.90;;;;;;2036241;29;20024;-73
2023/03/10 01:04:31;;;;;;;2.30;1.52;;;11.40;99.90;;;;;;2033658;29;20043;-74
2023/03/10 01:05:31;;;;;;;5.85;1.67;;;11.40;99.90;;;;;;2035983;29;20494;-73
2023/03/10 01:06:33;;;;;;;2.95;1.73;;;11.40;99.90;;;;;;2035957;29;20019;-74
2023/03/10 01:07:33;;;;;;;2.92;1.50;;;11.40;99.90;;;;;;2034860;29;20845;-73
2023/03/10 01:08:34;;;;;;;3.63;1.80;;;11.40;99.90;;;;;;2034674;29;20076;-73
2023/03/10 01:09:34;;;;;;;3.92;1.77;;;11.40;99.90;;;;;;2033881;29;20043;-74
2023/03/10 01:10:35;;;;;;;2.65;1.20;;;11.40;99.90;;;;;;2034733;29;20505;-74
2023/03/10 01:11:36;;;;;;;6.07;1.55;;;11.40;99.90;;;;;;2035550;29;20036;-74
2023/03/10 01:12:36;;;;;;;2.03;1.33;;;11.40;99.90;;;;;;2035628;29;20613;-74
2023/03/10 01:13:37;;;;;;;2.38;1.52;;;11.50;99.90;;;;;;2036729;29;20207;-74
2023/03/10 01:14:38;;;;;;;3.20;1.40;;;11.40;99.90;;;;;;2036386;29;20032;-73
2023/03/10 01:15:39;;;;;;;2.78;1.52;;;11.50;99.90;;;;;;2037098;29;20055;-73
2023/03/10 01:16:39;;;;;;;2.47;1.25;;;11.50;99.90;;;;;;2034523;29;20555;-74
2023/03/10 01:17:40;;;;;;;3.03;1.52;;;11.50;99.90;;;;;;2035995;29;20470;-73
2023/03/10 01:18:42;;;;;;;3.92;1.20;;;11.50;99.90;;;;;;2043487;28;20027;-73
2023/03/10 01:19:42;;;;;;;3.45;1.20;;;11.50;99.90;;;;;;2044549;28;20042;-73
2023/03/10 01:20:43;;;;;;;2.97;1.27;;;11.50;99.90;;;;;;2036124;29;20103;-74
2023/03/10 01:21:44;;;;;;;3.22;1.65;;;11.50;99.90;;;;;;2037327;29;20502;-73
2023/03/10 01:22:44;;;;;;;5.55;1.75;;;11.50;99.90;;;;;;2037870;29;20376;-73
2023/03/10 01:23:45;;;;;;;2.10;1.00;;;11.40;99.90;;;;;;2037272;29;20028;-74
2023/03/10 01:24:46;;;;;;;2.40;1.25;;;11.40;99.90;;;;;;2036831;29;20032;-73
2023/03/10 01:25:47;;;;;;;2.20;1.33;;;11.40;99.90;;;;;;2038249;29;20047;-74
2023/03/10 01:26:48;;;;;;;1.88;0.85;;;11.40;99.90;;;;;;2037359;29;20035;-74
2023/03/10 01:27:48;;;;;;;1.77;1.00;;;11.40;99.90;;;;;;2039054;29;20038;-74
2023/03/10 01:28:49;;;;;;;2.30;1.20;;;11.40;99.90;;;;;;2038695;29;20387;-73
2023/03/10 01:29:49;;;;;;;1.10;1.00;;;11.40;99.90;;;;;;2037169;29;20028;-73
2023/03/10 01:30:50;;;;;;;3.30;1.13;;;11.40;99.90;;;;;;2037154;29;20032;-74
2023/03/10 01:31:50;;;;;;;2.03;1.33;;;11.40;99.90;;;;;;2038045;29;20039;-73
2023/03/10 01:32:51;;;;;;;2.38;1.50;;;11.40;99.90;;;;;;2037606;29;20080;-74
2023/03/10 01:33:51;;;;;;;2.08;1.20;;;11.40;99.90;;;;;;2037722;29;20028;-74
2023/03/10 01:34:52;;;;;;;2.08;1.08;;;11.40;99.90;;;;;;2036653;29;20960;-73
2023/03/10 01:35:52;;;;;;;1.98;1.42;;;11.40;99.90;;;;;;2038460;29;20086;-73
2023/03/10 01:36:53;;;;;;;2.53;1.20;;;11.40;99.90;;;;;;2036030;29;20155;-74
2023/03/10 01:37:53;;;;;;;1.65;0.90;;;11.40;99.90;;;;;;2037691;29;20027;-73
2023/03/10 01:38:56;;;;;;;1.67;0.80;;;11.40;99.90;;;;;;2037483;29;20039;-73
2023/03/10 01:39:56;;;;;;;2.70;0.93;;;11.40;99.90;;;;;;2036217;29;20054;-73
2023/03/10 01:40:57;;;;;;;2.00;1.00;;;11.40;99.90;;;;;;2037528;29;20028;-74
2023/03/10 01:41:59;;;;;;;2.58;0.82;;;11.40;99.90;;;;;;2037705;29;20115;-74
2023/03/10 01:43:17;;;;;;;2.88;0.80;;;11.40;99.90;;;;;;2036762;29;20517;-74
2023/03/10 01:44:19;;;;;;;2.15;0.90;;;11.40;99.90;;;;;;2037507;29;20032;-74
2023/03/10 01:45:20;;;;;;;1.75;0.80;;;11.40;99.90;;;;;;2037064;29;20731;-73
2023/03/10 01:46:37;;;;;;;1.58;1.25;;;11.40;99.90;;;;;;2038699;29;20062;-73
2023/03/10 01:47:38;;;;;;;1.88;0.93;;;11.40;99.90;;;;;;2038093;29;20046;-73
2023/03/10 01:48:38;;;;;;;1.63;0.98;;;11.30;99.90;;;;;;2036507;29;20496;-73
2023/03/10 01:49:42;;;;;;;0.90;0.70;;;11.40;99.90;;;;;;2037659;29;20052;-73
2023/03/10 01:50:45;;;;;;;1.38;0.80;;;11.40;99.90;;;;;;2036860;29;20034;-73
2023/03/10 01:51:50;;;;;;;0.65;0.65;;;11.40;99.90;;;;;;2037250;29;20088;-74
2023/03/10 01:52:55;;;;;;;1.92;1.00;;;11.30;99.90;;;;;;2037351;29;20068;-73
2023/03/10 01:53:56;;;;;;;1.60;0.65;;;11.30;99.90;;;;;;2038343;29;20357;-74
2023/03/10 01:55:38;;;;;;;0.90;0.80;;;11.30;99.90;;;;;;2036150;29;20052;-73
2023/03/10 01:56:40;;;;;;;0.65;0.60;;;11.30;99.90;;;;;;2038155;29;20368;-73
2023/03/10 01:57:44;;;;;;;0.70;0.70;;;11.30;99.90;;;;;;2039072;29;20163;-73
2023/03/10 01:58:46;;;;;;;1.02;0.70;;;11.30;99.90;;;;;;2034517;29;20511;-73
2023/03/10 01:59:47;;;;;;;1.63;0.80;;;11.30;99.90;;;;;;2037084;29;20789;-73
2023/03/10 02:00:51;;;;;;;1.20;0.70;;;11.30;99.90;;;;;;2035988;29;20549;-72
2023/03/10 02:01:51;;;;;;;1.27;0.90;;;11.30;99.90;;;;;;2028256;29;20042;-72
2023/03/10 02:03:16;;;;;;;1.00;0.80;;;11.30;99.90;;;;;;2028891;29;20039;-72
2023/03/10 02:04:34;;;;;;;1.65;0.85;;;11.30;99.90;;;;;;2037317;29;20027;-72
2023/03/10 02:05:43;;;;;;;1.95;1.23;;;11.30;99.90;;;;;;2034006;29;20776;-72
2023/03/10 02:06:46;;;;;;;0.75;0.75;;;11.30;99.90;;;;;;2037865;29;20053;-72
2023/03/10 02:07:47;;;;;;;1.27;0.80;;;11.30;99.90;;;;;;2037318;29;20032;-72
2023/03/10 02:08:52;;;;;;;1.33;1.00;;;11.30;99.90;;;;;;2037468;29;20027;-72
2023/03/10 02:09:54;;;;;;;1.75;0.90;;;11.30;99.90;;;;;;2037038;29;20024;-72
2023/03/10 02:10:56;;;;;;;1.33;1.00;;;11.30;99.90;;;;;;2036018;29;20047;-72
2023/03/10 02:11:57;;;;;;;2.70;1.20;;;11.30;99.90;;;;;;2037771;29;20115;-72
2023/03/10 02:12:58;;;;;;;1.65;0.90;;;11.30;99.90;;;;;;2036965;29;20038;-72
2023/03/10 02:14:02;;;;;;;2.30;1.02;;;11.30;99.90;;;;;;2037194;29;20016;-72
2023/03/10 02:15:03;;;;;;;1.75;0.70;;;11.30;99.90;;;;;;2026832;29;20575;-72
2023/03/10 02:16:04;;;;;;;1.42;1.10;;;11.30;99.90;;;;;;2028737;29;20059;-72
2023/03/10 02:17:07;;;;;;;3.45;1.13;;;11.30;99.90;;;;;;2037160;29;20031;-72
2023/03/10 02:18:11;;;;;;;2.60;1.55;;;11.30;99.90;;;;;;2037678;29;20024;-72
2023/03/10 02:19:38;;;;;;;4.15;2.05;;;11.30;99.90;;;;;;2035333;29;20083;-72
2023/03/10 02:20:43;;;;;;;4.03;1.83;;;11.30;99.90;;;;;;2030757;29;20035;-72
2023/03/10 02:21:50;;;;;;;2.17;1.73;;;11.30;99.90;;;;;;2035883;29;20023;-72
2023/03/10 02:22:51;;;;;;;1.85;1.42;;;11.30;99.90;;;;;;2036140;29;20088;-72
2023/03/10 02:24:04;;;;;;;4.40;1.83;;;11.30;99.90;;;;;;2035673;29;20111;-72
2023/03/10 02:25:23;;;;;;;1.98;1.30;;;11.30;99.90;;;;;;2035310;29;20021;-72
2023/03/10 02:26:41;;;;;;;5.75;1.70;;;11.20;99.90;;;;;;2036751;29;20028;-72
2023/03/10 02:27:42;;;;;;;3.30;1.30;;;11.20;99.90;;;;;;2036432;29;20757;-72
2023/03/10 02:28:44;;;;;;;2.35;1.42;;;11.20;99.90;;;;;;2036773;29;20046;-72
2023/03/10 02:30:10;;;;;;;3.13;1.30;;;11.20;99.90;;;;;;2037899;29;20502;-72
2023/03/10 02:31:12;;;;;;;1.35;1.25;;;11.20;99.90;;;;;;2036992;29;20436;-72
2023/03/10 02:32:14;;;;;;;1.25;0.90;;;11.20;99.90;;;;;;2036855;29;20027;-72
2023/03/10 02:33:20;;;;;;;5.88;1.38;;;11.20;99.90;;;;;;2036622;29;20032;-72
2023/03/10 02:34:21;;;;;;;2.72;1.27;;;11.20;99.90;;;;;;2036534;29;20035;-72
2023/03/10 02:35:22;;;;;;;2.90;1.20;;;11.20;99.90;;;;;;2037215;29;20034;-72
2023/03/10 02:36:23;;;;;;;1.27;1.00;;;11.20;99.90;;;;;;2036652;29;20035;-72
2023/03/10 02:37:28;;;;;;;2.85;1.40;;;11.20;99.90;;;;;;2036933;29;20092;-72
2023/03/10 02:38:29;;;;;;;1.40;1.25;;;11.20;99.90;;;;;;2036765;29;20024;-72
2023/03/10 02:39:29;;;;;;;2.70;1.50;;;11.20;99.90;;;;;;2036441;29;20112;-72
2023/03/10 02:40:36;;;;;;;3.00;1.40;;;11.20;99.90;;;;;;2035739;29;20103;-72
2023/03/10 02:41:38;;;;;;;2.97;1.50;;;11.20;99.90;;;;;;2037208;29;20111;-72
2023/03/10 02:42:39;;;;;;;2.00;1.35;;;11.20;99.90;;;;;;2036745;29;20024;-72
2023/03/10 02:43:39;;;;;;;2.85;1.40;;;11.20;99.90;;;;;;2028523;29;20087;-72
2023/03/10 02:44:41;;;;;;;2.60;1.35;;;11.20;99.90;;;;;;2028677;29;20510;-72
2023/03/10 02:45:44;;;;;;;2.58;1.92;;;11.20;99.90;;;;;;2037192;29;20059;-71
2023/03/10 02:46:45;;;;;;;4.15;1.65;;;11.20;99.90;;;;;;2037117;29;20028;-72
2023/03/10 02:47:45;;;;;;;3.58;1.80;;;11.20;99.90;;;;;;2037542;29;20110;-72
2023/03/10 02:48:46;;;;;;;3.53;1.77;;;11.20;99.90;;;;;;2035059;29;20020;-72
2023/03/10 02:49:47;;;;;;;2.47;1.48;;;11.20;99.90;;;;;;2034758;29;20036;-72
2023/03/10 02:50:48;;;;;;;1.80;1.70;;;11.20;99.90;;;;;;2036184;29;20098;-72
2023/03/10 02:51:49;;;;;;;2.55;1.75;;;11.20;99.90;;;;;;2035978;29;20070;-72
2023/03/10 02:53:04;;;;;;;2.00;1.70;;;11.20;99.90;;;;;;2038164;29;20075;-72
2023/03/10 02:54:07;;;;;;;2.55;1.58;;;11.20;99.90;;;;;;2039039;29;20023;-72
2023/03/10 02:55:14;;;;;;;2.35;1.90;;;11.20;99.90;;;;;;2035490;29;20035;-72
2023/03/10 02:56:15;;;;;;;2.45;1.77;;;11.20;99.90;;;;;;2036060;29;20036;-72
2023/03/10 02:57:15;;;;;;;1.95;1.77;;;11.20;99.90;;;;;;2036257;29;20047;-72
2023/03/10 02:58:17;;;;;;;2.38;1.65;;;11.20;99.90;;;;;;2035706;29;20547;-72
2023/03/10 02:59:17;;;;;;;1.80;1.70;;;11.20;99.90;;;;;;2036271;29;20515;-73
2023/03/10 03:00:18;;;;;;;2.50;1.95;;;11.20;99.90;;;;;;2033680;29;20831;-72
2023/03/10 03:01:18;;;;;;;2.47;1.90;;;11.20;99.90;;;;;;2036783;29;20027;-72
2023/03/10 03:02:19;;;;;;;2.42;1.80;;;11.20;99.90;;;;;;2036791;29;20051;-72
2023/03/10 03:03:21;;;;;;;2.28;2.08;;;11.20;99.90;;;;;;2027453;29;20028;-72
2023/03/10 03:04:22;;;;;;;3.28;2.60;;;11.20;99.90;;;;;;2028644;29;20111;-72
2023/03/10 03:05:23;;;;;;;3.30;3.10;;;11.20;99.90;;;;;;2035897;29;20024;-72
2023/03/10 03:06:24;;;;;;;3.38;3.17;;;11.20;99.90;;;;;;2035779;29;20084;-72
2023/03/10 03:07:26;;;;;;;4.25;3.85;;;11.30;99.90;;;;;;2035923;29;20068;-72
2023/03/10 03:08:27;;;;;;;4.35;3.95;;;11.20;99.90;;;;;;2037543;29;20371;-72
2023/03/10 03:09:27;;;;;;;4.32;4.03;;;11.30;99.90;;;;;;2036183;29;20039;-72
2023/03/10 03:10:28;;;;;;;4.47;4.18;;;11.30;99.90;;;;;;2035583;29;20039;-72
2023/03/10 03:11:28;;;;;;;4.82;4.50;;;11.30;99.90;;;;;;2036389;29;20475;-72
2023/03/10 03:12:29;;;;;;;4.85;4.45;;;11.30;99.90;;;;;;2035413;29;20372;-72
2023/03/10 03:13:29;;;;;;;5.00;4.60;;;11.30;99.90;;;;;;2037472;29;20023;-72
2023/03/10 03:14:30;;;;;;;4.68;4.28;;;11.30;99.90;;;;;;2036309;29;20032;-72
2023/03/10 03:15:31;;;;;;;5.60;4.35;;;11.30;99.90;;;;;;2035924;29;20612;-71
2023/03/10 03:16:31;;;;;;;4.47;4.18;;;11.30;99.90;;;;;;2036570;29;20024;-72
2023/03/10 03:17:33;;;;;;;3.90;3.50;;;11.30;99.90;;;;;;2037741;29;20051;-72
2023/03/10 03:18:34;;;;;;;4.53;3.78;;;11.30;99.90;;;;;;2035641;29;20857;-72
2023/03/10 03:19:34;;;;;;;3.75;3.45;;;11.30;99.90;;;;;;2025110;29;21775;-72
2023/03/10 03:20:36;;;;;;;3.38;3.17;;;11.30;99.90;;;;;;2026894;29;20578;-72
2023/03/10 03:21:37;;;;;;;3.30;3.00;;;11.30;99.90;;;;;;2036675;29;20064;-72
2023/03/10 03:22:37;;;;;;;3.58;3.20;;;11.30;99.90;;;;;;2036681;29;20490;-72
2023/03/10 03:23:38;;;;;;;3.20;3.00;;;11.30;99.90;;;;;;2034909;29;20024;-72
2023/03/10 03:24:39;;;;;;;2.95;2.72;;;11.30;99.90;;;;;;2027764;29;20028;-72
2023/03/10 03:25:40;;;;;;;2.88;2.58;;;11.30;99.90;;;;;;2029332;29;20107;-72
2023/03/10 03:26:41;;;;;;;2.50;2.30;;;11.30;99.90;;;;;;2035583;29;20020;-72
2023/03/10 03:27:42;;;;;;;3.08;2.42;;;11.30;99.90;;;;;;2035415;29;20039;-72
2023/03/10 03:28:44;;;;;;;3.03;2.20;;;11.30;99.90;;;;;;2036574;29;20024;-72
2023/03/10 03:29:44;;;;;;;2.65;2.50;;;11.30;99.90;;;;;;2034812;29;20031;-72
2023/03/10 03:30:45;;;;;;;2.65;2.45;;;11.30;99.90;;;;;;2037202;29;20106;-72
2023/03/10 03:31:46;;;;;;;2.83;2.53;;;11.30;99.90;;;;;;2034882;29;20024;-72
2023/03/10 03:32:46;;;;;;;3.47;2.53;;;11.30;99.90;;;;;;2035670;29;20482;-72
2023/03/10 03:33:47;;;;;;;2.60;2.20;;;11.30;99.90;;;;;;2036046;29;20347;-72
2023/03/10 03:34:48;;;;;;;2.53;2.10;;;11.30;99.90;;;;;;2037246;29;20035;-72
2023/03/10 03:35:48;;;;;;;3.08;2.60;;;11.30;99.90;;;;;;2037059;29;20036;-72
2023/03/10 03:36:49;;;;;;;4.95;2.60;;;11.30;99.90;;;;;;2036554;29;20031;-72
2023/03/10 03:37:53;;;;;;;3.05;2.28;;;11.30;99.90;;;;;;2036022;29;20028;-72
2023/03/10 03:38:54;;;;;;;5.65;2.50;;;11.40;99.90;;;;;;2035580;29;20039;-72
2023/03/10 03:39:55;;;;;;;3.97;2.15;;;11.30;99.90;;;;;;2036664;29;20085;-72
2023/03/10 03:40:55;;;;;;;4.13;2.72;;;11.30;99.90;;;;;;2036511;29;20035;-72
2023/03/10 03:41:56;;;;;;;5.35;2.47;;;11.30;99.90;;;;;;2036553;29;20074;-72
2023/03/10 03:42:56;;;;;;;4.53;2.20;;;11.30;99.90;;;;;;2036025;29;20031;-72
2023/03/10 03:43:57;;;;;;;4.65;2.55;;;11.30;99.90;;;;;;2035927;29;20530;-72
2023/03/10 03:44:57;;;;;;;3.45;2.08;;;11.40;99.90;;;;;;2036963;29;20423;-72
2023/03/10 03:45:58;;;;;;;3.33;2.35;;;11.40;99.90;;;;;;2035469;29;20027;-72
2023/03/10 03:46:58;;;;;;;2.35;1.90;;;11.40;99.90;;;;;;2034145;29;20016;-72
2023/03/10 03:47:59;;;;;;;4.03;2.08;;;11.40;99.90;;;;;;2037021;29;20032;-72
2023/03/10 03:49:00;;;;;;;5.55;2.42;;;11.40;99.90;;;;;;2035463;29;20032;-72
2023/03/10 03:50:01;;;;;;;4.30;2.42;;;11.40;99.90;;;;;;2035628;29;20058;-72
2023/03/10 03:51:02;;;;;;;7.10;2.33;;;11.40;99.90;;;;;;2035908;29;20032;-72
2023/03/10 03:52:04;;;;;;;4.97;1.90;;;11.40;99.90;;;;;;2035109;29;20032;-72
2023/03/10 03:53:04;;;;;;;2.85;1.67;;;11.40;99.90;;;;;;2035245;29;20088;-72
2023/03/10 03:54:05;;;;;;;4.25;1.95;;;11.40;99.90;;;;;;2037047;29;20046;-72
2023/03/10 03:55:06;;;;;;;4.15;1.80;;;11.40;99.90;;;;;;2034580;29;20039;-72
2023/03/10 03:56:07;;;;;;;3.80;1.95;;;11.40;99.90;;;;;;2033907;29;20118;-72
2023/03/10 03:57:08;;;;;;;5.15;2.08;;;11.40;99.90;;;;;;2035603;29;20019;-72
2023/03/10 03:58:08;;;;;;;4.97;2.10;;;11.40;99.90;;;;;;2036987;29;20024;-72
2023/03/10 03:59:09;;;;;;;3.00;1.55;;;11.40;99.90;;;;;;2037017;29;20080;-72
2023/03/10 04:00:22;;;;;;;4.82;1.98;;;11.40;99.90;;;;;;2035601;29;20083;-72
2023/03/10 04:01:23;;;;;;;4.38;1.70;;;11.40;99.90;;;;;;2037397;29;20031;-72
2023/03/10 04:02:24;;;;;;;3.78;1.55;;;11.30;99.90;;;;;;2029086;29;20115;-72
2023/03/10 04:03:24;;;;;;;5.07;2.15;;;11.30;99.90;;;;;;2027839;29;20032;-72
2023/03/10 04:04:25;;;;;;;4.38;2.10;;;11.30;99.90;;;;;;2037376;29;20023;-72
2023/03/10 04:05:26;;;;;;;4.05;2.05;;;11.40;99.90;;;;;;2037747;29;20028;-72
2023/03/10 04:06:26;;;;;;;4.45;1.60;;;11.40;99.90;;;;;;2036286;29;20036;-71
2023/03/10 04:07:27;;;;;;;5.63;1.88;;;11.40;99.90;;;;;;2035808;29;20047;-72
2023/03/10 04:08:27;;;;;;;4.10;2.03;;;11.40;99.90;;;;;;2037215;29;20046;-72
2023/03/10 04:09:28;;;;;;;3.13;1.88;;;11.40;99.90;;;;;;2036344;29;20043;-72
2023/03/10 04:10:29;;;;;;;4.95;1.90;;;11.40;99.90;;;;;;2027706;29;20115;-72
2023/03/10 04:11:29;;;;;;;5.13;2.03;;;11.40;99.90;;;;;;2027032;29;20110;-72
2023/03/10 04:12:30;;;;;;;3.40;1.80;;;11.40;99.90;;;;;;2036733;29;20071;-72
2023/03/10 04:13:30;;;;;;;4.47;1.88;;;11.40;99.90;;;;;;2027607;29;20402;-72
2023/03/10 04:14:31;;;;;;;3.65;1.90;;;11.40;99.90;;;;;;2025369;29;20570;-71
2023/03/10 04:15:32;;;;;;;3.67;1.50;;;11.40;99.90;;;;;;2035868;29;20066;-72
2023/03/10 04:16:32;;;;;;;2.67;1.67;;;11.40;99.90;;;;;;2036721;29;20038;-72
2023/03/10 04:17:33;;;;;;;4.53;1.60;;;11.40;99.90;;;;;;2036861;29;20968;-72
2023/03/10 04:18:34;;;;;;;3.10;1.30;;;11.40;99.90;;;;;;2036865;29;20115;-72
2023/03/10 04:19:35;;;;;;;5.50;1.88;;;11.40;99.90;;;;;;2037730;29;20023;-72
2023/03/10 04:20:36;;;;;;;3.05;1.70;;;11.40;99.90;;;;;;2036770;29;20034;-72
2023/03/10 04:21:36;;;;;;;3.78;1.75;;;11.40;99.90;;;;;;2037172;29;20065;-72
2023/03/10 04:22:37;;;;;;;2.20;1.83;;;11.40;99.90;;;;;;2037091;29;20503;-72
2023/03/10 04:23:40;;;;;;;4.70;1.98;;;11.40;99.90;;;;;;2036400;29;20136;-72
2023/03/10 04:24:41;;;;;;;5.80;2.03;;;11.40;99.90;;;;;;2035835;29;20380;-72
2023/03/10 04:25:42;;;;;;;6.82;2.55;;;11.40;99.90;;;;;;2036217;29;20106;-72
2023/03/10 04:26:43;;;;;;;4.72;2.08;;;11.40;99.90;;;;;;2035331;29;20067;-72
2023/03/10 04:27:43;;;;;;;3.22;2.20;;;11.40;99.90;;;;;;2037241;29;20514;-73
2023/03/10 04:28:44;;;;;;;6.40;2.30;;;11.40;99.90;;;;;;2033107;29;20032;-72
2023/03/10 04:29:44;;;;;;;6.28;2.17;;;11.40;99.90;;;;;;2037994;29;20051;-72
2023/03/10 04:30:46;;;;;;;5.63;2.40;;;11.40;99.90;;;;;;2037205;29;20395;-72
2023/03/10 04:31:46;;;;;;;4.35;2.13;;;11.40;99.90;;;;;;2036888;29;20015;-72
2023/03/10 04:32:47;;;;;;;5.53;2.30;;;11.50;99.90;;;;;;2035312;29;20096;-72
2023/03/10 04:33:48;;;;;;;3.60;2.38;;;11.40;99.90;;;;;;2036027;29;20075;-72
2023/03/10 04:34:48;;;;;;;4.03;1.98;;;11.40;99.90;;;;;;2035275;29;20055;-72
2023/03/10 04:35:50;;;;;;;5.90;2.25;;;11.40;99.90;;;;;;2027905;29;20044;-72
2023/03/10 04:36:50;;;;;;;4.05;1.80;;;11.40;99.90;;;;;;2027840;29;20036;-72
2023/03/10 04:37:51;;;;;;;6.03;2.55;;;11.40;99.90;;;;;;2036835;29;20068;-72
2023/03/10 04:38:52;;;;;;;4.57;2.55;;;11.40;99.90;;;;;;2036139;29;20036;-72
2023/03/10 04:39:52;;;;;;;6.57;2.80;;;11.40;99.90;;;;;;2034797;29;20034;-72
2023/03/10 04:40:54;;;;;;;10.13;2.85;;;11.50;99.90;;;;;;2034488;29;20106;-72
2023/03/10 04:41:55;;;;;;;6.10;2.50;;;11.40;99.90;;;;;;2035212;29;20538;-72
2023/03/10 04:42:55;;;;;;;6.40;2.60;;;11.50;99.90;;;;;;2036563;29;20058;-72
2023/03/10 04:43:56;;;;;;;6.43;2.63;;;11.40;99.90;;;;;;2036966;29;20038;-72
2023/03/10 04:44:56;;;;;;;5.90;2.53;;;11.40;99.90;;;;;;2036104;29;20047;-72
2023/03/10 04:45:57;;;;;;;3.60;2.47;;;11.50;99.90;;;;;;2036711;29;20554;-72
2023/03/10 04:46:59;;;;;;;3.70;2.22;;;11.50;99.90;;;;;;2036126;29;20769;-72
2023/03/10 04:47:59;;;;;;;3.47;2.30;;;11.50;99.90;;;;;;2038336;29;20063;-72
2023/03/10 04:49:00;;;;;;;5.93;2.47;;;11.50;99.90;;;;;;2037827;29;20099;-72
2023/03/10 04:50:00;;;;;;;4.50;2.55;;;11.50;99.90;;;;;;2035498;29;20038;-72
2023/03/10 04:51:04;;;;;;;6.13;2.45;;;11.50;99.90;;;;;;2037897;29;20034;-72
2023/03/10 04:52:05;;;;;;;4.03;2.47;;;11.50;99.90;;;;;;2037842;29;20070;-72
2023/03/10 04:53:06;;;;;;;3.17;2.50;;;11.50;99.90;;;;;;2037019;29;20059;-72
2023/03/10 04:54:06;;;;;;;5.22;2.67;;;11.50;99.90;;;;;;2037576;29;20035;-72
2023/03/10 04:55:07;;;;;;;6.18;3.00;;;11.40;99.90;;;;;;2038131;29;20043;-72
2023/03/10 04:56:09;;;;;;;6.78;3.25;;;11.50;99.90;;;;;;2036663;29;20035;-72
2023/03/10 04:57:09;;;;;;;5.63;2.88;;;11.50;99.90;;;;;;2038750;29;20016;-72
2023/03/10 04:58:10;;;;;;;5.93;3.10;;;11.40;99.90;;;;;;2036652;29;20529;-72
2023/03/10 04:59:11;;;;;;;5.63;2.35;;;11.40;99.90;;;;;;2038474;29;20016;-72
2023/03/10 05:00:12;;;;;;;7.47;2.97;;;11.40;99.90;;;;;;2036036;29;20035;-72
2023/03/10 05:01:14;;;;;;;5.30;2.55;;;11.40;99.90;;;;;;2038089;29;20083;-72
2023/03/10 05:02:15;;;;;;;6.03;3.08;;;11.40;99.90;;;;;;2038563;29;20529;-72
2023/03/10 05:03:16;;;;;;;5.82;2.92;;;11.40;99.90;;;;;;2037630;29;20903;-72
2023/03/10 05:04:16;;;;;;;7.13;2.92;;;11.40;99.90;;;;;;2037599;29;20035;-72
2023/03/10 05:05:17;;;;;;;5.57;2.80;;;11.40;99.90;;;;;;2038709;29;20057;-72
2023/03/10 05:06:20;;;;;;;6.15;2.70;;;11.30;99.90;;;;;;2037876;29;20024;-72
2023/03/10 05:07:21;;;;;;;5.30;2.80;;;11.30;99.90;;;;;;2037075;29;20132;-72
2023/03/10 05:08:21;;;;;;;7.57;3.55;;;11.30;99.90;;;;;;2036004;29;20102;-72
2023/03/10 05:09:22;;;;;;;9.40;3.10;;;11.40;99.90;;;;;;2035496;29;20042;-72
2023/03/10 05:10:23;;;;;;;6.15;3.00;;;11.30;99.90;;;;;;2037373;29;20032;-72
2023/03/10 05:11:23;;;;;;;8.10;2.97;;;11.40;99.90;;;;;;2038108;29;20039;-72
2023/03/10 05:12:24;;;;;;;4.32;2.72;;;11.30;99.90;;;;;;2038052;29;20075;-72
2023/03/10 05:13:24;;;;;;;6.80;3.03;;;11.40;99.90;;;;;;2044820;28;20039;-72
2023/03/10 05:14:25;;;;;;;4.53;2.38;;;11.30;99.90;;;;;;2043015;28;20394;-72
2023/03/10 05:15:25;;;;;;;4.63;2.90;;;11.30;99.90;;;;;;2037766;29;20051;-72
2023/03/10 05:16:26;;;;;;;4.05;2.38;;;11.30;99.90;;;;;;2037347;29;20035;-72
2023/03/10 05:17:28;;;;;;;3.58;2.50;;;11.40;99.90;;;;;;2035185;29;20064;-72
2023/03/10 05:18:28;;;;;;;6.00;2.53;;;11.40;99.90;;;;;;2038022;29;20031;-72
2023/03/10 05:19:29;;;;;;;7.82;2.47;;;11.40;99.90;;;;;;2037826;29;20486;-72
2023/03/10 05:20:29;;;;;;;4.53;2.35;;;11.40;99.90;;;;;;2036529;29;20056;-72
2023/03/10 05:21:30;;;;;;;5.65;2.65;;;11.40;99.90;;;;;;2038866;29;20887;-72
2023/03/10 05:22:30;;;;;;;5.40;2.22;;;11.40;99.90;;;;;;2035253;29;20204;-72
2023/03/10 05:23:31;;;;;;;4.55;2.03;;;11.40;99.90;;;;;;2038327;29;20082;-72